PWSweather.com
Personal Weather Stations
Station Observations
CW6488
River Forest, Covington, LA 70433

River ForestCovington, LA 70433

Lat: 30.4876, Lon: -90.1406

Elevation: 32

Station Type: WMR968

Latest ConditionsUpdated 6:40:02 AM CDT Thursday, Apr 26, 2018
Currently Today's Max Today's Min Today's Average
Temperature 63.5°F17.5°C 66.1°F18.9°C 63.2°F17.3°C 64.4°F18.0°C
Dew Point 62.3°F16.8°C 64.3°F17.9°C 61.8°F16.6°C 62.8°F17.1°C
Winds Calm Calm 1.0 mph SSW1.6 kmh SSW - 0.1 mph 0.2 kmh
Wind Gusts -- -- - -
Humidity 96% 96% 93% 94%
Pressure 29.87 in1011.5 mb 29.88 in1011.9 mb 29.82 in1009.8 mb -
Hour Temp Dew Point Humidity Winds Wind Gusts Pressure Precip Precip Rate Daily Precip Total
06:40 AM 63.5°F17.5°C 62.3°F16.8°C 96% Calm Calm -- 29.87 in1011.5 mb 0.09 in2.3 mm 0.06 in1.5 mm 0.32 in8.1 mm
06:30 AM 63.8°F17.7°C 62.6°F17.0°C 96% 1.0 mph WSW1.6 kmh WSW -- 29.86 in1011.2 mb 0.08 in2.0 mm 0.00 in0.0 mm 0.31 in7.9 mm
06:20 AM 64.3°F17.9°C 63.1°F17.3°C 96% Calm Calm -- 29.85 in1010.8 mb 0.21 in5.3 mm 0.00 in0.0 mm 0.31 in7.9 mm
06:10 AM 64.6°F18.1°C 63.4°F17.4°C 96% 1.0 mph SE1.6 kmh SE -- 29.85 in1010.8 mb 0.29 in7.4 mm 0.00 in0.0 mm 0.31 in7.9 mm
06:00 AM 64.8°F18.2°C 63.6°F17.6°C 96% Calm Calm -- 29.85 in1010.8 mb 0.29 in7.4 mm 0.00 in0.0 mm 0.31 in7.9 mm
05:50 AM 64.8°F18.2°C 63.6°F17.6°C 96% Calm Calm -- 29.84 in1010.5 mb 0.31 in7.9 mm 0.00 in0.0 mm 0.31 in7.9 mm
05:40 AM 64.9°F18.3°C 63.7°F17.6°C 96% Calm Calm -- 29.85 in1010.8 mb 0.31 in7.9 mm 0.18 in4.6 mm 0.31 in7.9 mm
05:30 AM 65.4°F18.6°C 63.9°F17.7°C 95% Calm Calm -- 29.84 in1010.5 mb 0.28 in7.1 mm 0.66 in16.8 mm 0.28 in7.1 mm
05:20 AM 65.7°F18.7°C 64.2°F17.9°C 95% 1.0 mph SSW1.6 kmh SSW -- 29.84 in1010.5 mb 0.17 in4.3 mm 0.42 in10.7 mm 0.17 in4.3 mm
05:10 AM 65.9°F18.8°C 64.1°F17.8°C 94% 1.0 mph SSW1.6 kmh SSW -- 29.83 in1010.2 mb 0.10 in2.5 mm 0.42 in10.7 mm 0.10 in2.5 mm
05:00 AM 66.1°F18.9°C 64.3°F17.9°C 94% Calm Calm -- 29.84 in1010.5 mb 0.03 in0.8 mm 0.04 in1.0 mm 0.03 in0.8 mm
04:50 AM 66.1°F18.9°C 64.0°F17.8°C 93% 1.0 mph SSW1.6 kmh SSW -- 29.84 in1010.5 mb 0.00 in0.0 mm 0.00 in0.0 mm 0.00 in0.0 mm
04:40 AM 66.0°F18.9°C 63.9°F17.7°C 93% Calm Calm -- 29.84 in1010.5 mb 0.00 in0.0 mm 0.00 in0.0 mm 0.00 in0.0 mm
04:30 AM 65.9°F18.8°C 63.8°F17.7°C 93% Calm Calm -- 29.83 in1010.2 mb 0.00 in0.0 mm 0.00 in0.0 mm 0.00 in0.0 mm
04:20 AM 65.6°F18.7°C 63.8°F17.7°C 94% Calm Calm -- 29.83 in1010.2 mb 0.00 in0.0 mm 0.00 in0.0 mm 0.00 in0.0 mm
04:10 AM 65.3°F18.5°C 63.5°F17.5°C 94% Calm Calm -- 29.83 in1010.2 mb 0.00 in0.0 mm 0.00 in0.0 mm 0.00 in0.0 mm
04:00 AM 65.1°F18.4°C 63.3°F17.4°C 94% Calm Calm -- 29.82 in1009.8 mb 0.00 in0.0 mm 0.00 in0.0 mm 0.00 in0.0 mm
03:50 AM 64.9°F18.3°C 63.1°F17.3°C 94% Calm Calm -- 29.83 in1010.2 mb 0.00 in0.0 mm 0.00 in0.0 mm 0.00 in0.0 mm
03:40 AM 64.5°F18.1°C 62.7°F17.1°C 94% Calm Calm -- 29.82 in1009.8 mb 0.00 in0.0 mm 0.00 in0.0 mm 0.00 in0.0 mm
03:30 AM 64.2°F17.9°C 62.4°F16.9°C 94% Calm Calm -- 29.82 in1009.8 mb 0.00 in0.0 mm 0.00 in0.0 mm 0.00 in0.0 mm
03:20 AM 64.2°F17.9°C 62.4°F16.9°C 94% Calm Calm -- 29.83 in1010.2 mb 0.00 in0.0 mm 0.00 in0.0 mm 0.00 in0.0 mm
03:10 AM 64.0°F17.8°C 62.2°F16.8°C 94% Calm Calm -- 29.83 in1010.2 mb 0.00 in0.0 mm 0.00 in0.0 mm 0.00 in0.0 mm
03:00 AM 64.0°F17.8°C 62.2°F16.8°C 94% Calm Calm -- 29.83 in1010.2 mb 0.00 in0.0 mm 0.00 in0.0 mm 0.00 in0.0 mm
02:50 AM 64.1°F17.8°C 62.6°F17.0°C 95% Calm Calm -- 29.83 in1010.2 mb 0.00 in0.0 mm 0.00 in0.0 mm 0.00 in0.0 mm
02:40 AM 63.9°F17.7°C 62.4°F16.9°C 95% Calm Calm -- 29.84 in1010.5 mb 0.00 in0.0 mm 0.00 in0.0 mm 0.00 in0.0 mm
02:30 AM 63.6°F17.6°C 62.2°F16.8°C 95% Calm Calm -- 29.84 in1010.5 mb 0.00 in0.0 mm 0.00 in0.0 mm 0.00 in0.0 mm
02:20 AM 63.2°F17.3°C 61.8°F16.6°C 95% Calm Calm -- 29.85 in1010.8 mb 0.00 in0.0 mm 0.00 in0.0 mm 0.00 in0.0 mm
02:10 AM 63.2°F17.3°C 61.8°F16.6°C 95% Calm Calm -- 29.85 in1010.8 mb 0.00 in0.0 mm 0.00 in0.0 mm 0.00 in0.0 mm
02:00 AM 63.2°F17.3°C 61.8°F16.6°C 95% Calm Calm -- 29.85 in1010.8 mb 0.00 in0.0 mm 0.00 in0.0 mm 0.00 in0.0 mm
01:50 AM 63.3°F17.4°C 61.9°F16.6°C 95% Calm Calm -- 29.85 in1010.8 mb 0.00 in0.0 mm 0.00 in0.0 mm 0.00 in0.0 mm
01:40 AM 63.4°F17.4°C 62.0°F16.7°C 95% Calm Calm -- 29.85 in1010.8 mb 0.00 in0.0 mm 0.00 in0.0 mm 0.00 in0.0 mm
01:30 AM 63.4°F17.4°C 62.0°F16.7°C 95% Calm Calm -- 29.86 in1011.2 mb 0.00 in0.0 mm 0.00 in0.0 mm 0.00 in0.0 mm
01:20 AM 63.5°F17.5°C 62.1°F16.7°C 95% Calm Calm -- 29.87 in1011.5 mb 0.00 in0.0 mm 0.00 in0.0 mm 0.00 in0.0 mm
01:10 AM 63.6°F17.6°C 61.9°F16.6°C 94% Calm Calm -- 29.88 in1011.9 mb 0.00 in0.0 mm 0.00 in0.0 mm 0.00 in0.0 mm
01:00 AM 63.7°F17.6°C 62.0°F16.7°C 94% Calm Calm -- 29.88 in1011.9 mb 0.00 in0.0 mm 0.00 in0.0 mm 0.00 in0.0 mm
12:50 AM 63.8°F17.7°C 62.0°F16.7°C 94% Calm Calm -- 29.88 in1011.9 mb 0.00 in0.0 mm 0.00 in0.0 mm 0.00 in0.0 mm
12:40 AM 63.9°F17.7°C 62.1°F16.7°C 94% Calm Calm -- 29.88 in1011.9 mb 0.00 in0.0 mm 0.00 in0.0 mm 0.00 in0.0 mm
12:30 AM 63.9°F17.7°C 62.1°F16.7°C 94% Calm Calm -- 29.88 in1011.9 mb 0.00 in0.0 mm 0.00 in0.0 mm 0.00 in0.0 mm
12:20 AM 64.1°F17.8°C 62.0°F16.7°C 93% Calm Calm -- 29.87 in1011.5 mb 0.00 in0.0 mm 0.00 in0.0 mm 0.00 in0.0 mm
12:10 AM 64.2°F17.9°C 62.1°F16.7°C 93% Calm Calm -- 29.87 in1011.5 mb 0.00 in0.0 mm 0.00 in0.0 mm 0.00 in0.0 mm
12:00 AM 64.3°F17.9°C 62.2°F16.8°C 93% Calm Calm -- 29.88 in1011.9 mb 0.00 in0.0 mm 0.00 in0.0 mm 0.00 in0.0 mm